createdAt,value
2018-09-01T00:00:49.187Z,79.02
2018-09-01T00:01:49.125Z,79.02
2018-09-01T00:02:49.065Z,79.31
2018-09-01T00:03:49.006Z,78.96
2018-09-01T00:04:48.949Z,78.29
2018-09-01T00:05:48.880Z,78.67
2018-09-01T00:06:48.814Z,78.77
2018-09-01T00:07:48.744Z,78.96
2018-09-01T00:08:48.695Z,79.16
2018-09-01T00:09:48.622Z,78.96
2018-09-01T00:10:48.564Z,78.58
2018-09-01T00:11:48.486Z,78.83
2018-09-01T00:12:48.413Z,79.22
2018-09-01T00:13:48.351Z,79.22
2018-09-01T00:14:48.302Z,79.60
2018-09-01T00:15:48.234Z,79.50
2018-09-01T00:16:48.168Z,79.22
2018-09-01T00:17:48.096Z,79.22
2018-09-01T00:18:48.027Z,78.64
2018-09-01T00:19:47.980Z,79.54
2018-09-01T00:20:47.914Z,78.92
2018-09-01T00:21:47.846Z,78.92
2018-09-01T00:22:47.788Z,79.31
2018-09-01T00:23:47.710Z,79.22
2018-09-01T00:24:47.649Z,79.22
2018-09-01T00:25:47.590Z,79.41
2018-09-01T00:26:47.528Z,78.92
2018-09-01T00:27:47.458Z,79.02
2018-09-01T00:28:47.394Z,78.83
2018-09-01T00:29:47.325Z,78.83
2018-09-01T00:30:47.292Z,79.41
2018-09-01T00:31:47.217Z,78.54
2018-09-01T00:32:47.142Z,79.45
2018-09-01T00:33:47.081Z,78.25
2018-09-01T00:34:47.015Z,78.73
2018-09-01T00:35:46.961Z,78.92
2018-09-01T00:36:46.877Z,78.92
2018-09-01T00:37:46.810Z,79.12
2018-09-01T00:38:46.751Z,79.41
2018-09-01T00:39:46.696Z,78.92
2018-09-01T00:40:46.630Z,78.83
2018-09-01T00:41:46.581Z,78.73
2018-09-01T00:42:46.501Z,79.22
2018-09-01T00:43:46.440Z,79.22
2018-09-01T00:44:46.376Z,78.92
2018-09-01T00:45:46.311Z,79.22
2018-09-01T00:46:46.247Z,79.41
2018-09-01T00:47:46.173Z,79.12
2018-09-01T00:48:46.103Z,78.83
2018-09-01T00:49:46.052Z,79.02
2018-09-01T00:50:45.992Z,78.73
2018-09-01T00:51:45.931Z,79.22
2018-09-01T00:52:45.849Z,79.22
2018-09-01T00:53:45.789Z,79.37
2018-09-01T00:54:45.727Z,79.37
2018-09-01T00:55:45.670Z,79.37
2018-09-01T00:56:45.604Z,79.27
2018-09-01T00:57:45.528Z,79.37
2018-09-01T00:58:45.487Z,79.56
2018-09-01T00:59:45.412Z,79.47
2018-09-01T01:00:45.346Z,79.08
2018-09-01T01:01:45.330Z,79.17
2018-09-01T01:02:45.236Z,79.08
2018-09-01T01:03:45.165Z,79.02
2018-09-01T01:04:45.106Z,79.37
2018-09-01T01:05:45.038Z,79.31
2018-09-01T01:06:44.954Z,79.02
2018-09-01T01:07:44.897Z,78.73
2018-09-01T01:08:44.834Z,78.83
2018-09-01T01:09:44.772Z,78.99
2018-09-01T01:10:44.704Z,78.59
2018-09-01T01:11:44.635Z,78.99
2018-09-01T01:12:44.565Z,78.69
2018-09-01T01:13:44.512Z,78.11
2018-09-01T01:14:44.456Z,78.89
2018-09-01T01:15:44.386Z,78.69
2018-09-01T01:16:44.309Z,78.99
2018-09-01T01:17:44.243Z,78.89
2018-09-01T01:18:44.208Z,79.27
2018-09-01T01:19:44.127Z,79.08
2018-09-01T01:20:44.065Z,79.08
2018-09-01T01:21:44.007Z,78.69
2018-09-01T01:22:43.941Z,79.17
2018-09-01T01:23:43.870Z,79.08
2018-09-01T01:24:43.806Z,79.37
2018-09-01T01:25:43.740Z,78.69
2018-09-01T01:26:43.671Z,78.31
2018-09-01T01:27:43.605Z,78.59
2018-09-01T01:28:43.551Z,78.89
2018-09-01T01:29:43.484Z,78.08
2018-09-01T01:30:43.435Z,78.08
2018-09-01T01:31:43.365Z,77.98
2018-09-01T01:32:43.271Z,77.73
2018-09-01T01:33:43.226Z,77.88
2018-09-01T01:34:43.149Z,78.59
2018-09-01T01:35:43.098Z,78.02
2018-09-01T01:36:43.034Z,78.11
2018-09-01T01:37:42.970Z,78.11
2018-09-01T01:38:42.905Z,77.92
2018-09-01T01:39:42.826Z,77.92
2018-09-01T01:40:42.784Z,77.63
2018-09-01T01:41:42.704Z,77.92
2018-09-01T01:42:42.646Z,77.83
2018-09-01T01:43:42.586Z,77.86
2018-09-01T01:44:42.513Z,77.86
2018-09-01T01:45:42.443Z,77.92
2018-09-01T01:46:42.397Z,77.73
2018-09-01T01:47:42.319Z,77.92
2018-09-01T01:48:42.259Z,78.31
2018-09-01T01:49:42.260Z,78.21
2018-09-01T01:50:42.131Z,78.17
2018-09-01T01:51:42.066Z,78.17
2018-09-01T01:52:41.994Z,78.08
2018-09-01T01:53:41.943Z,77.40
2018-09-01T01:54:41.877Z,77.73
2018-09-01T01:55:41.815Z,77.73
2018-09-01T01:56:41.743Z,77.44
2018-09-01T01:57:41.680Z,77.44
2018-09-01T01:58:41.609Z,77.34
2018-09-01T01:59:41.538Z,77.34
2018-09-01T02:00:41.474Z,77.44
2018-09-01T02:01:41.423Z,77.15
2018-09-01T02:02:41.350Z,77.34
2018-09-01T02:03:41.281Z,77.44
2018-09-01T02:04:41.213Z,77.34
2018-09-01T02:05:41.150Z,77.63
2018-09-01T02:06:41.101Z,77.63
2018-09-01T02:07:41.032Z,77.44
2018-09-01T02:08:40.962Z,77.53
2018-09-01T02:09:40.903Z,77.53
2018-09-01T02:10:40.837Z,77.34
2018-09-01T02:11:40.779Z,77.15
2018-09-01T02:12:40.713Z,77.05
2018-09-01T02:13:40.649Z,76.76
2018-09-01T02:14:40.569Z,77.15
2018-09-01T02:15:40.511Z,76.95
2018-09-01T02:16:40.456Z,77.44
2018-09-01T02:17:40.382Z,77.34
2018-09-01T02:18:40.316Z,77.53
2018-09-01T02:19:40.261Z,77.63
2018-09-01T02:20:40.193Z,77.15
2018-09-01T02:21:40.131Z,77.05
2018-09-01T02:22:40.061Z,77.15
2018-09-01T02:23:39.992Z,77.44
2018-09-01T02:24:39.948Z,77.34
2018-09-01T02:25:39.870Z,77.40
2018-09-01T02:26:39.819Z,77.11
2018-09-01T02:27:39.729Z,77.25
2018-09-01T02:28:39.668Z,76.76
2018-09-01T02:29:39.600Z,77.15
2018-09-01T02:30:39.542Z,77.15
2018-09-01T02:31:39.485Z,76.86
2018-09-01T02:32:39.415Z,77.05
2018-09-01T02:33:39.348Z,77.01
2018-09-01T02:34:39.284Z,77.21
2018-09-01T02:35:39.233Z,77.21
2018-09-01T02:36:39.161Z,76.43
2018-09-01T02:37:39.099Z,76.43
2018-09-01T02:38:39.031Z,76.53
2018-09-01T02:39:38.964Z,76.82
2018-09-01T02:40:38.894Z,76.34
2018-09-01T02:41:38.835Z,75.67
2018-09-01T02:42:38.765Z,75.95
2018-09-01T02:43:38.708Z,75.95
2018-09-01T02:44:38.660Z,75.47
2018-09-01T02:45:38.579Z,75.82
2018-09-01T02:46:38.518Z,75.24
2018-09-01T02:47:38.459Z,74.89
2018-09-01T02:48:38.391Z,74.85
2018-09-01T02:49:38.321Z,74.99
2018-09-01T02:50:38.261Z,74.31
2018-09-01T02:51:38.209Z,74.37
2018-09-01T02:52:38.116Z,74.21
2018-09-01T02:53:38.052Z,74.47
2018-09-01T02:54:38.004Z,74.57
2018-09-01T02:55:37.930Z,74.60
2018-09-01T02:56:37.874Z,74.69
2018-09-01T02:57:37.805Z,74.21
2018-09-01T02:58:37.740Z,73.93
2018-09-01T02:59:37.680Z,73.93
2018-09-01T03:00:37.598Z,73.83
2018-09-01T03:01:37.534Z,73.54
2018-09-01T03:02:37.472Z,73.15
2018-09-01T03:03:37.412Z,73.25
2018-09-01T03:04:37.357Z,73.73
2018-09-01T03:05:37.294Z,73.73
2018-09-01T03:06:37.219Z,73.31
2018-09-01T03:07:37.165Z,73.60
2018-09-01T03:08:37.092Z,72.73
2018-09-01T03:09:37.029Z,72.73
2018-09-01T03:10:36.966Z,72.83
2018-09-01T03:11:36.892Z,72.25
2018-09-01T03:12:36.827Z,72.44
2018-09-01T03:13:36.757Z,72.96
2018-09-01T03:14:36.696Z,72.86
2018-09-01T03:15:36.642Z,72.58
2018-09-01T03:16:36.569Z,72.86
2018-09-01T03:17:36.513Z,72.73
2018-09-01T03:18:36.443Z,72.28
2018-09-01T03:19:36.372Z,72.38
2018-09-01T03:20:36.304Z,72.58
2018-09-01T03:21:36.253Z,72.58
2018-09-01T03:22:36.193Z,72.48
2018-09-01T03:23:36.116Z,72.38
2018-09-01T03:24:36.049Z,72.28
2018-09-01T03:25:35.978Z,72.28
2018-09-01T03:26:35.914Z,72.28
2018-09-01T03:27:35.857Z,71.80
2018-09-01T03:28:35.789Z,72.19
2018-09-01T03:29:35.723Z,72.09
2018-09-01T03:30:35.672Z,72.09
2018-09-01T03:31:35.611Z,72.38
2018-09-01T03:32:35.533Z,72.38
2018-09-01T03:33:35.479Z,71.80
2018-09-01T03:34:35.405Z,71.48
2018-09-01T03:35:35.331Z,71.67
2018-09-01T03:36:35.284Z,71.67
2018-09-01T03:37:35.216Z,70.80
2018-09-01T03:38:35.147Z,70.80
2018-09-01T03:39:35.086Z,70.13
2018-09-01T03:40:35.011Z,70.03
2018-09-01T03:41:34.940Z,69.90
2018-09-01T03:42:34.881Z,70.22
2018-09-01T03:43:34.822Z,69.23
2018-09-01T03:44:34.760Z,69.32
2018-09-01T03:45:34.695Z,68.55
2018-09-01T03:46:34.629Z,68.16
2018-09-01T03:47:34.553Z,68.35
2018-09-01T03:48:34.497Z,68.35
2018-09-01T03:49:34.423Z,68.49
2018-09-01T03:50:34.365Z,69.16
2018-09-01T03:51:34.305Z,69.45
2018-09-01T03:52:34.237Z,69.35
2018-09-01T03:53:34.165Z,69.45
2018-09-01T03:54:34.101Z,69.45
2018-09-01T03:55:34.047Z,69.16
2018-09-01T03:56:33.990Z,69.07
2018-09-01T03:57:33.921Z,68.68
2018-09-01T03:58:33.852Z,68.87
2018-09-01T03:59:33.776Z,69.07
2018-09-01T04:00:33.716Z,68.59
2018-09-01T04:01:33.646Z,68.68
2018-09-01T04:02:33.587Z,68.97
2018-09-01T04:03:33.529Z,68.87
2018-09-01T04:04:33.469Z,69.07
2018-09-01T04:05:33.393Z,68.49
2018-09-01T04:06:33.333Z,68.68
2018-09-01T04:07:33.279Z,69.07
2018-09-01T04:08:33.192Z,68.77
2018-09-01T04:09:33.137Z,68.77
2018-09-01T04:10:33.077Z,69.35
2018-09-01T04:11:33.000Z,69.55
2018-09-01T04:12:32.952Z,69.26
2018-09-01T04:13:32.894Z,69.45
2018-09-01T04:14:32.809Z,69.29
2018-09-01T04:15:32.757Z,69.35
2018-09-01T04:16:32.682Z,69.16
2018-09-01T04:17:32.626Z,69.16
2018-09-01T04:18:32.559Z,69.35
2018-09-01T04:19:32.481Z,69.64
2018-09-01T04:20:32.436Z,69.74
2018-09-01T04:21:32.352Z,69.68
2018-09-01T04:22:32.288Z,69.68
2018-09-01T04:23:32.234Z,69.78
2018-09-01T04:24:32.171Z,69.87
2018-09-01T04:25:32.097Z,70.26
2018-09-01T04:26:32.044Z,70.06
2018-09-01T04:27:31.979Z,70.06
2018-09-01T04:28:31.910Z,69.78
2018-09-01T04:29:31.852Z,69.97
2018-09-01T04:30:31.798Z,70.45
2018-09-01T04:31:31.726Z,70.06
2018-09-01T04:32:31.649Z,70.26
2018-09-01T04:33:31.618Z,70.16
2018-09-01T04:34:31.531Z,69.87
2018-09-01T04:35:31.468Z,70.16
2018-09-01T04:36:31.381Z,69.68
2018-09-01T04:37:31.336Z,70.22
2018-09-01T04:38:31.259Z,69.84
2018-09-01T04:39:31.198Z,70.03
2018-09-01T04:40:31.138Z,69.55
2018-09-01T04:41:31.059Z,69.16
2018-09-01T04:42:30.995Z,69.26
2018-09-01T04:43:30.945Z,69.26
2018-09-01T04:44:30.884Z,69.16
2018-09-01T04:45:30.808Z,69.07
2018-09-01T04:46:30.752Z,69.16
2018-09-01T04:47:30.691Z,68.39
2018-09-01T04:48:30.623Z,68.49
2018-09-01T04:49:30.535Z,67.97
2018-09-01T04:50:30.477Z,67.58
2018-09-01T04:51:30.418Z,67.58
2018-09-01T04:52:30.356Z,67.40
2018-09-01T04:53:30.290Z,67.49
2018-09-01T04:54:30.226Z,67.68
2018-09-01T04:55:30.147Z,67.78
2018-09-01T04:56:30.108Z,67.58
2018-09-01T04:57:30.035Z,67.68
2018-09-01T04:58:29.969Z,67.20
2018-09-01T04:59:29.912Z,67.49
2018-09-01T05:00:29.841Z,66.82
2018-09-01T05:01:29.789Z,66.33
2018-09-01T05:02:29.695Z,66.14
2018-09-01T05:03:29.650Z,66.62
2018-09-01T05:04:29.576Z,66.62
2018-09-01T05:05:29.503Z,66.24
2018-09-01T05:06:29.437Z,66.33
2018-09-01T05:07:29.386Z,66.43
2018-09-01T05:08:29.322Z,65.75
2018-09-01T05:09:29.251Z,64.89
2018-09-01T05:10:29.185Z,63.98
2018-09-01T05:11:29.119Z,62.63
2018-09-01T05:12:29.065Z,62.63
2018-09-01T05:13:28.995Z,62.06
2018-09-01T05:14:28.925Z,62.25
2018-09-01T05:15:28.854Z,62.66
2018-09-01T05:16:28.806Z,62.86
2018-09-01T05:17:28.731Z,63.24
2018-09-01T05:18:28.689Z,63.82
2018-09-01T05:19:28.598Z,63.63
2018-09-01T05:20:28.549Z,63.82
2018-09-01T05:21:28.475Z,63.63
2018-09-01T05:22:28.410Z,63.92
2018-09-01T05:23:28.333Z,63.06
2018-09-01T05:24:28.267Z,63.54
2018-09-01T05:25:28.201Z,63.15
2018-09-01T05:26:28.139Z,63.34
2018-09-01T05:27:28.078Z,63.44
2018-09-01T05:28:28.027Z,62.96
2018-09-01T05:29:27.943Z,63.92
2018-09-01T05:30:27.876Z,63.85
2018-09-01T05:31:27.822Z,63.92
2018-09-01T05:32:27.753Z,64.05
2018-09-01T05:33:27.688Z,63.85
2018-09-01T05:34:27.630Z,63.92
2018-09-01T05:35:27.555Z,63.15
2018-09-01T05:36:27.536Z,62.66
2018-09-01T05:37:27.433Z,62.76
2018-09-01T05:38:27.377Z,62.86
2018-09-01T05:39:27.311Z,62.76
2018-09-01T05:40:27.228Z,62.76
2018-09-01T05:41:27.163Z,61.80
2018-09-01T05:42:27.099Z,61.13
2018-09-01T05:43:27.038Z,61.03
2018-09-01T05:44:26.977Z,61.03
2018-09-01T05:45:26.895Z,60.83
2018-09-01T05:46:26.839Z,60.83
2018-09-01T05:47:26.798Z,61.03
2018-09-01T05:48:26.716Z,61.32
2018-09-01T05:49:26.648Z,62.02
2018-09-01T05:50:26.587Z,62.31
2018-09-01T05:51:26.530Z,62.18
2018-09-01T05:52:26.455Z,62.31
2018-09-01T05:53:26.374Z,62.31
2018-09-01T05:54:26.334Z,62.70
2018-09-01T05:55:26.271Z,62.31
2018-09-01T05:56:26.210Z,62.79
2018-09-01T05:57:26.133Z,62.41
2018-09-01T05:58:26.064Z,62.96
2018-09-01T05:59:25.994Z,62.31
2018-09-01T06:00:25.955Z,61.71
2018-09-01T06:01:25.870Z,62.18
2018-09-01T06:02:25.810Z,62.18
2018-09-01T06:03:25.747Z,62.38
2018-09-01T06:04:25.679Z,61.99
2018-09-01T06:05:25.597Z,62.31
2018-09-01T06:06:25.634Z,61.83
2018-09-01T06:07:25.477Z,62.02
2018-09-01T06:08:25.417Z,62.41
2018-09-01T06:09:25.354Z,62.41
2018-09-01T06:10:25.292Z,62.60
2018-09-01T06:11:25.213Z,62.22
2018-09-01T06:12:25.160Z,62.60
2018-09-01T06:13:25.083Z,62.51
2018-09-01T06:14:25.020Z,62.51
2018-09-01T06:15:24.970Z,62.31
2018-09-01T06:16:24.905Z,62.41
2018-09-01T06:17:24.840Z,62.99
2018-09-01T06:18:24.759Z,62.70
2018-09-01T06:19:24.707Z,62.60
2018-09-01T06:20:24.638Z,62.70
2018-09-01T06:21:24.575Z,62.99
2018-09-01T06:22:24.512Z,62.82
2018-09-01T06:23:24.431Z,62.51
2018-09-01T06:24:24.393Z,62.89
2018-09-01T06:25:24.307Z,62.82
2018-09-01T06:26:24.298Z,62.79
2018-09-01T06:27:24.190Z,62.60
2018-09-01T06:28:24.125Z,62.89
2018-09-01T06:29:24.056Z,62.99
2018-09-01T06:30:24.000Z,62.70
2018-09-01T06:31:23.920Z,62.79
2018-09-01T06:32:23.876Z,62.89
2018-09-01T06:33:23.801Z,63.02
2018-09-01T06:34:23.736Z,63.21
2018-09-01T06:35:23.682Z,63.60
2018-09-01T06:36:23.599Z,63.31
2018-09-01T06:37:23.537Z,63.89
2018-09-01T06:38:23.470Z,64.08
2018-09-01T06:39:23.422Z,63.89
2018-09-01T06:40:23.358Z,63.60
2018-09-01T06:41:23.296Z,63.60
2018-09-01T06:42:23.244Z,63.70
2018-09-01T06:43:23.160Z,64.08
2018-09-01T06:44:23.098Z,64.21
2018-09-01T06:45:23.046Z,64.21
2018-09-01T06:46:22.983Z,64.31
2018-09-01T06:47:22.905Z,64.37
2018-09-01T06:48:22.831Z,64.28
2018-09-01T06:49:22.776Z,64.66
2018-09-01T06:50:22.718Z,64.66
2018-09-01T06:51:22.666Z,64.69
2018-09-01T06:52:22.596Z,64.79
2018-09-01T06:53:22.557Z,64.69
2018-09-01T06:54:22.452Z,64.79
2018-09-01T06:55:22.400Z,64.50
2018-09-01T06:56:22.331Z,64.59
2018-09-01T06:57:22.271Z,64.98
2018-09-01T06:58:22.222Z,64.89
2018-09-01T06:59:22.136Z,64.98
2018-09-01T07:00:22.094Z,65.08
2018-09-01T07:01:22.028Z,65.47
2018-09-01T07:02:21.946Z,65.47
2018-09-01T07:03:21.890Z,65.56
2018-09-01T07:04:21.822Z,65.17
2018-09-01T07:05:21.751Z,65.47
2018-09-01T07:06:21.707Z,65.56
2018-09-01T07:07:21.668Z,65.59
2018-09-01T07:08:21.570Z,65.50
2018-09-01T07:09:21.510Z,65.20
2018-09-01T07:10:21.441Z,65.30
2018-09-01T07:11:21.373Z,65.20
2018-09-01T07:12:21.304Z,65.20
2018-09-01T07:13:21.245Z,65.20
2018-09-01T07:14:21.181Z,65.11
2018-09-01T07:15:21.130Z,65.40
2018-09-01T07:16:21.066Z,65.40
2018-09-01T07:17:21.002Z,65.40
2018-09-01T07:18:20.936Z,65.20
2018-09-01T07:19:20.887Z,65.11
2018-09-01T07:20:20.799Z,65.88
2018-09-01T07:21:20.765Z,65.69
2018-09-01T07:22:20.682Z,65.69
2018-09-01T07:23:20.630Z,65.40
2018-09-01T07:24:20.551Z,66.27
2018-09-01T07:25:20.485Z,66.36
2018-09-01T07:26:20.426Z,66.46
2018-09-01T07:27:20.370Z,66.17
2018-09-01T07:28:20.307Z,66.75
2018-09-01T07:29:20.246Z,66.66
2018-09-01T07:30:20.370Z,66.56
2018-09-01T07:31:20.422Z,65.88
2018-09-01T07:32:20.046Z,66.46
2018-09-01T07:33:19.977Z,66.75
2018-09-01T07:34:19.920Z,66.56
2018-09-01T07:35:19.862Z,66.75
2018-09-01T07:36:19.804Z,66.20
2018-09-01T07:37:19.747Z,66.01
2018-09-01T07:38:19.683Z,65.92
2018-09-01T07:39:19.612Z,66.30
2018-09-01T07:40:19.546Z,66.69
2018-09-01T07:41:19.485Z,66.40
2018-09-01T07:42:19.425Z,66.50
2018-09-01T07:43:19.352Z,66.59
2018-09-01T07:44:19.285Z,66.78
2018-09-01T07:45:19.285Z,66.50
2018-09-01T07:46:19.174Z,66.59
2018-09-01T07:47:19.102Z,66.20
2018-09-01T07:48:19.042Z,66.40
2018-09-01T07:49:18.977Z,66.78
2018-09-01T07:50:18.914Z,67.33
2018-09-01T07:51:18.864Z,66.98
2018-09-01T07:52:18.790Z,67.08
2018-09-01T07:53:18.721Z,66.40
2018-09-01T07:54:18.661Z,66.72
2018-09-01T07:55:18.609Z,66.69
2018-09-01T07:56:18.654Z,66.78
2018-09-01T07:57:18.484Z,66.72
2018-09-01T07:58:18.420Z,66.72
2018-09-01T07:59:18.361Z,66.82
2018-09-01T08:00:18.353Z,66.72
2018-09-01T08:01:18.239Z,66.63
2018-09-01T08:02:18.166Z,66.88
2018-09-01T08:03:18.110Z,66.91
2018-09-01T08:04:18.046Z,66.53
2018-09-01T08:05:17.996Z,66.72
2018-09-01T08:06:17.922Z,66.91
2018-09-01T08:07:17.904Z,66.72
2018-09-01T08:08:17.784Z,66.72
2018-09-01T08:09:17.728Z,67.01
2018-09-01T08:10:17.670Z,67.11
2018-09-01T08:11:17.600Z,66.72
2018-09-01T08:12:17.531Z,66.47
2018-09-01T08:13:17.477Z,66.56
2018-09-01T08:14:17.481Z,66.85
2018-09-01T08:15:17.358Z,66.66
2018-09-01T08:16:17.303Z,66.56
2018-09-01T08:17:17.230Z,66.66
2018-09-01T08:18:17.166Z,66.27
2018-09-01T08:19:17.093Z,67.05
2018-09-01T08:20:17.035Z,66.88
2018-09-01T08:21:16.980Z,66.56
2018-09-01T08:22:16.916Z,66.60
2018-09-01T08:23:16.862Z,66.11
2018-09-01T08:24:16.800Z,66.69
2018-09-01T08:25:16.725Z,66.11
2018-09-01T08:26:16.682Z,66.40
2018-09-01T08:27:16.613Z,66.11
2018-09-01T08:28:16.548Z,66.88
2018-09-01T08:29:16.491Z,66.69
2018-09-01T08:30:16.431Z,66.60
2018-09-01T08:31:16.364Z,66.34
2018-09-01T08:32:16.295Z,66.43
2018-09-01T08:33:16.244Z,66.63
2018-09-01T08:34:16.172Z,66.98
2018-09-01T08:35:16.121Z,66.60
2018-09-01T08:36:16.055Z,66.92
2018-09-01T08:37:15.990Z,67.08
2018-09-01T08:38:15.940Z,67.08
2018-09-01T08:39:15.861Z,66.92
2018-09-01T08:40:15.856Z,67.11
2018-09-01T08:41:15.750Z,67.02
2018-09-01T08:42:15.691Z,66.78
2018-09-01T08:43:15.623Z,66.72
2018-09-01T08:44:15.550Z,67.02
2018-09-01T08:45:15.492Z,67.11
2018-09-01T08:46:15.431Z,66.72
2018-09-01T08:47:15.383Z,66.82
2018-09-01T08:48:15.314Z,66.72
2018-09-01T08:49:15.242Z,67.11
2018-09-01T08:50:15.184Z,67.11
2018-09-01T08:51:15.139Z,66.47
2018-09-01T08:52:15.070Z,65.79
2018-09-01T08:53:15.005Z,66.66
2018-09-01T08:54:14.947Z,66.08
2018-09-01T08:55:14.879Z,65.79
2018-09-01T08:56:14.819Z,65.82
2018-09-01T08:57:14.762Z,66.30
2018-09-01T08:58:14.698Z,66.11
2018-09-01T08:59:14.629Z,66.30
2018-09-01T09:00:14.567Z,66.66
2018-09-01T09:01:14.513Z,66.37
2018-09-01T09:02:14.445Z,66.95
2018-09-01T09:03:14.396Z,66.37
2018-09-01T09:04:14.334Z,66.85
2018-09-01T09:05:14.278Z,66.75
2018-09-01T09:06:14.214Z,67.05
2018-09-01T09:07:14.141Z,67.14
2018-09-01T09:08:14.077Z,66.75
2018-09-01T09:09:14.020Z,66.95
2018-09-01T09:10:13.975Z,66.85
2018-09-01T09:11:13.902Z,67.24
2018-09-01T09:12:13.849Z,66.95
2018-09-01T09:13:13.776Z,66.85
2018-09-01T09:14:13.713Z,67.14
2018-09-01T09:15:13.667Z,67.14
2018-09-01T09:16:13.601Z,67.21
2018-09-01T09:17:13.535Z,67.69
2018-09-01T09:18:13.472Z,67.79
2018-09-01T09:19:13.407Z,67.50
2018-09-01T09:20:13.356Z,68.02
2018-09-01T09:21:13.297Z,67.92
2018-09-01T09:22:13.239Z,67.82
2018-09-01T09:23:13.166Z,67.82
2018-09-01T09:24:13.101Z,67.05
2018-09-01T09:25:13.058Z,67.34
2018-09-01T09:26:12.986Z,67.63
2018-09-01T09:27:12.929Z,68.18
2018-09-01T09:28:12.858Z,68.47
2018-09-01T09:29:12.795Z,68.27
2018-09-01T09:30:12.740Z,67.88
2018-09-01T09:31:12.695Z,67.79
2018-09-01T09:32:12.616Z,68.12
2018-09-01T09:33:12.574Z,68.27
2018-09-01T09:34:12.485Z,68.02
2018-09-01T09:35:12.425Z,68.12
2018-09-01T09:36:12.380Z,68.02
2018-09-01T09:37:12.305Z,67.82
2018-09-01T09:38:12.250Z,67.34
2018-09-01T09:39:12.199Z,67.24
2018-09-01T09:40:12.148Z,67.24
2018-09-01T09:41:12.066Z,67.14
2018-09-01T09:42:11.997Z,67.14
2018-09-01T09:43:11.937Z,66.75
2018-09-01T09:44:11.886Z,67.14
2018-09-01T09:45:11.825Z,67.14
2018-09-01T09:46:11.755Z,66.85
2018-09-01T09:47:11.695Z,66.66
2018-09-01T09:48:11.629Z,66.99
2018-09-01T09:49:11.571Z,67.18
2018-09-01T09:50:11.518Z,66.69
2018-09-01T09:51:11.452Z,66.79
2018-09-01T09:52:11.385Z,66.79
2018-09-01T09:53:11.341Z,66.40
2018-09-01T09:54:11.273Z,66.99
2018-09-01T09:55:11.215Z,66.24
2018-09-01T09:56:11.157Z,66.44
2018-09-01T09:57:11.093Z,66.40
2018-09-01T09:58:11.054Z,66.34
2018-09-01T09:59:10.957Z,66.24
2018-09-01T10:00:10.904Z,66.34
2018-09-01T10:01:10.946Z,66.34
2018-09-01T10:02:10.780Z,66.34
2018-09-01T10:03:10.718Z,67.11
2018-09-01T10:04:10.658Z,66.05
2018-09-01T10:05:10.616Z,66.24
2018-09-01T10:06:10.548Z,66.14
2018-09-01T10:07:10.483Z,66.14
2018-09-01T10:08:10.420Z,65.59
2018-09-01T10:09:10.360Z,66.14
2018-09-01T10:10:10.344Z,66.60
2018-09-01T10:11:10.323Z,66.69
2018-09-01T10:12:10.168Z,66.30
2018-09-01T10:13:10.112Z,66.99
2018-09-01T10:14:10.052Z,67.08
2018-09-01T10:15:10.006Z,67.27
2018-09-01T10:16:09.925Z,67.47
2018-09-01T10:17:09.858Z,67.47
2018-09-01T10:18:09.810Z,67.27
2018-09-01T10:19:09.794Z,67.18
2018-09-01T10:20:09.799Z,67.27
2018-09-01T10:21:09.642Z,67.21
2018-09-01T10:22:09.560Z,67.21
2018-09-01T10:23:09.521Z,66.72
2018-09-01T10:24:09.436Z,67.11
2018-09-01T10:25:09.376Z,66.44
2018-09-01T10:26:09.327Z,66.44
2018-09-01T10:27:09.380Z,65.79
2018-09-01T10:28:09.203Z,66.08
2018-09-01T10:29:09.148Z,66.17
2018-09-01T10:30:09.098Z,66.27
2018-09-01T10:31:09.015Z,65.40
2018-09-01T10:32:08.962Z,65.40
2018-09-01T10:33:08.901Z,65.30
2018-09-01T10:34:08.828Z,65.30
2018-09-01T10:35:08.786Z,65.01
2018-09-01T10:36:08.723Z,65.01
2018-09-01T10:37:08.643Z,65.50
2018-09-01T10:38:08.592Z,65.79
2018-09-01T10:39:08.537Z,65.40
2018-09-01T10:40:08.475Z,65.20
2018-09-01T10:41:08.413Z,65.11
2018-09-01T10:42:08.355Z,65.40
2018-09-01T10:43:08.298Z,65.63
2018-09-01T10:44:08.230Z,65.01
2018-09-01T10:45:08.159Z,65.59
2018-09-01T10:46:08.122Z,65.59
2018-09-01T10:47:08.048Z,66.17
2018-09-01T10:48:08.013Z,65.40
2018-09-01T10:49:07.913Z,66.08
2018-09-01T10:50:07.868Z,66.17
2018-09-01T10:51:07.810Z,65.43
2018-09-01T10:52:07.744Z,65.20
2018-09-01T10:53:07.687Z,65.59
2018-09-01T10:54:07.634Z,65.63
2018-09-01T10:55:07.608Z,65.72
2018-09-01T10:56:07.504Z,65.53
2018-09-01T10:57:07.438Z,64.95
2018-09-01T10:58:07.375Z,64.75
2018-09-01T10:59:07.441Z,64.85
2018-09-01T11:00:07.257Z,64.75
2018-09-01T11:01:07.187Z,65.14
2018-09-01T11:02:07.141Z,64.26
2018-09-01T11:03:07.132Z,64.26
2018-09-01T11:04:07.010Z,64.46
2018-09-01T11:05:06.964Z,64.36
2018-09-01T11:06:06.904Z,64.56
2018-09-01T11:07:06.837Z,64.36
2018-09-01T11:08:06.770Z,64.56
2018-09-01T11:09:06.725Z,64.56
2018-09-01T11:10:06.648Z,64.85
2018-09-01T11:11:06.589Z,64.56
2018-09-01T11:12:06.528Z,64.17
2018-09-01T11:13:06.463Z,65.14
2018-09-01T11:14:06.418Z,64.75
2018-09-01T11:15:06.353Z,65.43
2018-09-01T11:16:06.288Z,65.53
2018-09-01T11:17:06.231Z,65.63
2018-09-01T11:18:06.163Z,65.92
2018-09-01T11:19:06.101Z,66.02
2018-09-01T11:20:06.054Z,66.30
2018-09-01T11:21:05.988Z,66.02
2018-09-01T11:22:05.920Z,65.98
2018-09-01T11:23:05.855Z,66.02
2018-09-01T11:24:05.816Z,66.21
2018-09-01T11:25:05.760Z,66.50
2018-09-01T11:26:05.744Z,65.72
2018-09-01T11:27:05.627Z,65.92
2018-09-01T11:28:05.689Z,64.95
2018-09-01T11:29:05.516Z,64.85
2018-09-01T11:30:05.435Z,64.95
2018-09-01T11:31:05.381Z,64.56
2018-09-01T11:32:05.321Z,64.95
2018-09-01T11:33:05.251Z,64.75
2018-09-01T11:34:05.241Z,64.75
2018-09-01T11:35:05.164Z,64.65
2018-09-01T11:36:05.105Z,65.14
2018-09-01T11:37:05.034Z,64.95
2018-09-01T11:38:04.973Z,65.82
2018-09-01T11:39:04.902Z,65.24
2018-09-01T11:40:04.834Z,65.24
2018-09-01T11:41:04.778Z,65.53
2018-09-01T11:42:04.730Z,66.05
2018-09-01T11:43:04.847Z,65.63
2018-09-01T11:44:04.577Z,65.53
2018-09-01T11:45:04.525Z,66.40
2018-09-01T11:46:04.474Z,66.50
2018-09-01T11:47:04.414Z,66.40
2018-09-01T11:48:04.350Z,66.21
2018-09-01T11:49:04.290Z,66.30
2018-09-01T11:50:04.275Z,65.72
2018-09-01T11:51:04.158Z,65.47
2018-09-01T11:52:04.105Z,64.59
2018-09-01T11:53:04.103Z,64.78
2018-09-01T11:54:04.035Z,64.78
2018-09-01T11:55:03.920Z,64.78
2018-09-01T11:56:03.852Z,64.69
2018-09-01T11:57:03.793Z,64.69
2018-09-01T11:58:03.773Z,64.72
2018-09-01T11:59:03.701Z,64.69
2018-09-01T12:00:03.613Z,64.59
2018-09-01T12:01:03.549Z,64.98
2018-09-01T12:02:03.540Z,64.98
2018-09-01T12:03:03.436Z,65.85
2018-09-01T12:04:03.378Z,64.98
2018-09-01T12:05:03.363Z,65.08
2018-09-01T12:06:03.251Z,64.88
2018-09-01T12:07:03.190Z,65.08
2018-09-01T12:08:03.164Z,64.81
2018-09-01T12:09:03.219Z,64.78
2018-09-01T12:10:03.021Z,64.72
2018-09-01T12:11:02.937Z,65.01
2018-09-01T12:12:02.899Z,64.91
2018-09-01T12:13:02.825Z,64.91
2018-09-01T12:14:02.771Z,64.62
2018-09-01T12:15:02.709Z,64.91
2018-09-01T12:16:02.648Z,64.81
2018-09-01T12:17:02.589Z,64.53
2018-09-01T12:18:02.517Z,64.72
2018-09-01T12:19:02.479Z,64.91
2018-09-01T12:20:02.413Z,64.53
2018-09-01T12:21:02.335Z,65.11
2018-09-01T12:22:02.288Z,65.01
2018-09-01T12:23:02.236Z,64.23
2018-09-01T12:24:02.157Z,64.43
2018-09-01T12:25:02.103Z,64.72
2018-09-01T12:26:02.046Z,64.23
2018-09-01T12:27:01.991Z,64.33
2018-09-01T12:28:01.922Z,64.36
2018-09-01T12:29:01.867Z,64.07
2018-09-01T12:30:01.796Z,63.94
2018-09-01T12:31:01.730Z,63.55
2018-09-01T12:32:01.674Z,63.39
2018-09-01T12:33:01.618Z,63.59
2018-09-01T12:34:01.565Z,63.87
2018-09-01T12:35:01.501Z,63.59
2018-09-01T12:36:01.437Z,63.78
2018-09-01T12:37:01.389Z,64.17
2018-09-01T12:38:01.333Z,64.07
2018-09-01T12:39:01.269Z,64.26
2018-09-01T12:40:01.201Z,63.78
2018-09-01T12:41:01.136Z,64.65
2018-09-01T12:42:01.088Z,63.59
2018-09-01T12:43:01.012Z,63.59
2018-09-01T12:44:00.947Z,63.29
2018-09-01T12:45:00.881Z,63.87
2018-09-01T12:46:00.839Z,63.20
2018-09-01T12:47:00.774Z,63.00
2018-09-01T12:48:00.716Z,62.32
2018-09-01T12:49:00.655Z,62.51
2018-09-01T12:50:00.580Z,62.71
2018-09-01T12:51:00.526Z,62.81
2018-09-01T12:52:00.486Z,62.51